Morforte De Lemos, Spain
Current Conditions -  °F | °C
As of 9:30 AM on Thursday 29 Jan 2015 (Local Time) from LEST Reporting Station
Broken Clouds Broken Clouds  
Wind Chill: 41°   Ceiling: 1800
Heat Index: 46°   Visibility: 6mi
Dew Point: 45°   Wind: 10mph
Humidity: 93%   Direction: 240°WSW
Pressure: 30.06"   Gusts: NA
Location:  42.52°N, 7.5°W
Report Text: LEST 290830Z 24009KT 190V290 9999 SCT005 BKN018 BKN032 08/07 Q1018 NOSIG
Loading
Personal Weather Stations






























Interactive Weather Map New forecast layout! Learn more

10-Day Weather Forecast

Advertisements
Track Severe Weather on mobile